createdAt,value
2023-09-04T00:07:19.721Z,29.30
2023-09-04T00:17:23.293Z,41.90
2023-09-04T00:27:25.327Z,41.88
2023-09-04T00:37:28.757Z,44.47
2023-09-04T00:47:31.220Z,48.00
2023-09-04T00:57:35.475Z,42.03
2023-09-04T01:07:39.632Z,51.03
2023-09-04T01:17:44.233Z,46.03
2023-09-04T01:27:54.639Z,53.03
2023-09-04T01:37:57.438Z,57.10
2023-09-04T01:48:00.868Z,58.20
2023-09-04T01:58:03.067Z,86.13
2023-09-04T02:08:06.831Z,100.85
2023-09-04T02:18:08.994Z,98.65
2023-09-04T02:28:12.436Z,96.93
2023-09-04T02:38:14.515Z,87.63
2023-09-04T02:48:17.877Z,94.25
2023-09-04T02:58:21.151Z,91.43
2023-09-04T03:08:24.923Z,91.15
2023-09-04T03:18:27.219Z,107.07
2023-09-04T03:28:30.630Z,102.10
2023-09-04T03:38:32.695Z,110.35
2023-09-04T03:48:36.235Z,117.40
2023-09-04T03:58:38.298Z,115.97
2023-09-04T04:08:41.745Z,101.18
2023-09-04T04:18:43.779Z,101.80
2023-09-04T04:28:47.181Z,114.13
2023-09-04T04:38:49.218Z,110.38
2023-09-04T04:48:52.715Z,116.60
2023-09-04T04:58:54.784Z,104.57
2023-09-04T05:08:58.200Z,94.93
2023-09-04T05:19:00.262Z,95.38
2023-09-04T05:29:03.662Z,101.10
2023-09-04T05:39:05.940Z,89.07
2023-09-04T05:49:09.361Z,79.50
2023-09-04T05:59:11.424Z,78.45
2023-09-04T06:09:14.770Z,75.25
2023-09-04T06:19:16.779Z,66.82
2023-09-04T06:29:20.366Z,67.32
2023-09-04T06:39:23.138Z,60.42
2023-09-04T06:49:26.563Z,64.63
2023-09-04T06:59:28.578Z,58.28
2023-09-04T07:09:31.959Z,61.75
2023-09-04T07:19:33.983Z,54.05
2023-09-04T07:29:37.399Z,51.88
2023-09-04T07:39:39.443Z,51.28
2023-09-04T07:49:42.990Z,40.90
2023-09-04T07:59:45.009Z,37.95
2023-09-04T08:09:48.404Z,33.70
2023-09-04T08:19:50.552Z,26.88
2023-09-04T08:29:54.149Z,19.67
2023-09-04T08:39:56.336Z,15.40
2023-09-04T08:50:02.853Z,11.63
2023-09-04T09:00:05.941Z,9.55
2023-09-04T09:10:14.095Z,9.48
2023-09-04T09:20:30.302Z,7.38
2023-09-04T09:30:39.022Z,4.88
2023-09-04T09:40:41.042Z,6.57
2023-09-04T09:50:44.459Z,4.95
2023-09-04T10:00:46.718Z,3.70
2023-09-04T10:10:52.690Z,5.10
2023-09-04T10:20:56.892Z,3.92
2023-09-04T10:31:02.341Z,3.90
2023-09-04T10:41:06.582Z,4.05
2023-09-04T10:51:28.348Z,4.25
2023-09-04T11:01:38.120Z,4.90
2023-09-04T11:11:41.749Z,6.35
2023-09-04T11:21:44.944Z,4.70
2023-09-04T11:42:11.329Z,5.20
2023-09-04T11:52:16.428Z,5.70
2023-09-04T12:02:18.488Z,6.90
2023-09-04T12:12:22.290Z,7.82
2023-09-04T12:22:24.321Z,8.43
2023-09-04T12:32:27.790Z,8.07
2023-09-04T12:42:29.883Z,7.63
2023-09-04T12:52:33.679Z,15.98
2023-09-04T13:02:35.882Z,10.55
2023-09-04T13:12:39.344Z,12.38
2023-09-04T13:22:42.258Z,9.05
2023-09-04T13:32:45.668Z,12.25
2023-09-04T13:42:47.703Z,11.55
2023-09-04T13:52:51.043Z,10.63
2023-09-04T14:02:53.076Z,11.20
2023-09-04T14:12:56.969Z,11.32
2023-09-04T14:22:58.996Z,9.98
2023-09-04T14:33:02.515Z,13.90
2023-09-04T14:43:04.997Z,8.50
2023-09-04T14:53:08.467Z,10.00
2023-09-04T15:03:10.607Z,12.75
2023-09-04T15:13:14.127Z,5.70
2023-09-04T15:23:16.116Z,6.70
2023-09-04T15:33:19.522Z,4.45
2023-09-04T15:43:23.068Z,9.65
2023-09-04T15:53:26.484Z,5.18
2023-09-04T16:03:28.620Z,7.55
2023-09-04T16:13:32.042Z,7.35
2023-09-04T16:24:04.658Z,6.03
2023-09-04T16:34:07.993Z,6.25
2023-09-04T16:44:11.595Z,4.75
2023-09-04T16:54:15.189Z,5.95
2023-09-04T17:04:18.024Z,7.93
2023-09-04T17:14:50.599Z,7.35
2023-09-04T17:24:52.660Z,7.72
2023-09-04T17:34:56.071Z,10.60
2023-09-04T17:44:58.198Z,11.43
2023-09-04T17:55:01.623Z,8.07
2023-09-04T18:05:04.039Z,6.35
2023-09-04T18:15:11.599Z,8.73
2023-09-04T19:08:49.861Z,12.13
2023-09-04T19:41:04.420Z,15.07
2023-09-04T19:51:06.457Z,12.50
2023-09-04T20:35:15.258Z,23.05
2023-09-04T20:45:18.779Z,18.30
2023-09-04T20:55:20.954Z,20.40
2023-09-04T21:05:24.348Z,22.48
2023-09-04T21:15:26.590Z,30.65
2023-09-04T21:25:32.421Z,29.83
2023-09-04T21:35:34.407Z,38.45
2023-09-04T21:45:37.719Z,40.95
2023-09-04T21:55:39.764Z,46.72
2023-09-04T22:05:44.543Z,44.72
2023-09-04T22:15:46.523Z,45.65
2023-09-04T22:25:49.909Z,47.03
2023-09-04T22:35:51.880Z,60.20
2023-09-04T22:45:55.269Z,55.17
2023-09-04T22:55:57.234Z,70.13
2023-09-04T23:06:00.573Z,60.08
2023-09-04T23:16:02.550Z,75.55
2023-09-04T23:26:05.941Z,67.45
2023-09-04T23:36:08.582Z,76.32
2023-09-04T23:46:12.978Z,75.03
2023-09-04T23:56:14.916Z,68.40
